| time (UTC) | temp C | wind direction | speed KPH | gust KPH | rain 1hr cm | rain 24hr cm | rain mn cm | humidity % | barometer mb |
| 20260507200656 | 29 | 240 | 3.2 | 3.2 | 0.00 | 0.00 | 0.00 | 16 | 1010.5 |
| 20260507200152 | 28 | 234 | 8.0 | 9.7 | 0.00 | 0.00 | 0.00 | 15 | 1010.9 |
| 20260507195649 | 30 | 211 | 4.8 | 8.0 | 0.00 | 0.00 | 0.00 | 15 | 1010.8 |
| 20260507195146 | 30 | 338 | 11.3 | 12.9 | 0.00 | 0.00 | 0.00 | 15 | 1010.8 |
| 20260507194643 | 30 | 298 | 4.8 | 4.8 | 0.00 | 0.00 | 0.00 | 15 | 1010.9 |
| 20260507194138 | 30 | 262 | 6.4 | 8.0 | 0.00 | 0.00 | 0.00 | 15 | 1011.0 |
| 20260507193635 | 28 | 270 | 11.3 | 14.5 | 0.00 | 0.00 | 0.00 | 15 | 1011.2 |
| 20260507193133 | 30 | 4 | 6.4 | 8.0 | 0.00 | 0.00 | 0.00 | 15 | 1011.1 |
| 20260507192629 | 29 | 273 | 8.0 | 9.7 | 0.00 | 0.00 | 0.00 | 15 | 1011.1 |
| 20260507192126 | 30 | 265 | 11.3 | 12.9 | 0.00 | 0.00 | 0.00 | 16 | 1011.4 |
| 20260507191621 | 30 | 301 | 8.0 | 11.3 | 0.00 | 0.00 | 0.00 | 15 | 1011.4 |
| 20260507191118 | 28 | 165 | 0.0 | 1.6 | 0.00 | 0.00 | 0.00 | 16 | 1011.5 |
| 20260507190616 | 29 | 299 | 9.7 | 11.3 | 0.00 | 0.00 | 0.00 | 16 | 1011.4 |
| 20260507190115 | 29 | 332 | 11.3 | 12.9 | 0.00 | 0.00 | 0.00 | 16 | 1011.4 |
| 20260507185613 | 28 | 217 | 0.0 | 0.0 | 0.00 | 0.00 | 0.00 | 16 | 1011.7 |
| 20260507185109 | 28 | 252 | 6.4 | 8.0 | 0.00 | 0.00 | 0.00 | 17 | 1011.6 |
| 20260507184607 | 28 | 199 | 4.8 | 8.0 | 0.00 | 0.00 | 0.00 | 17 | 1011.8 |
| 20260507184104 | 29 | 265 | 8.0 | 9.7 | 0.00 | 0.00 | 0.00 | 17 | 1011.9 |
| 20260507183600 | 28 | 80 | 1.6 | 1.6 | 0.00 | 0.00 | 0.00 | 18 | 1012.0 |
| 20260507183057 | 28 | 168 | 4.8 | 4.8 | 0.00 | 0.00 | 0.00 | 18 | 1012.0 |
| 20260507182554 | 28 | 245 | 3.2 | 3.2 | 0.00 | 0.00 | 0.00 | 18 | 1012.0 |
| 20260507182049 | 27 | 216 | 8.0 | 8.0 | 0.00 | 0.00 | 0.00 | 19 | 1011.9 |
| 20260507181547 | 28 | 215 | 3.2 | 3.2 | 0.00 | 0.00 | 0.00 | 19 | 1012.3 |
| 20260507181043 | 27 | 22 | 4.8 | 4.8 | 0.00 | 0.00 | 0.00 | 19 | 1012.4 |
| 20260507180539 | 27 | 195 | 3.2 | 3.2 | 0.00 | 0.00 | 0.00 | 20 | 1012.4 |
| 20260507180037 | 27 | 186 | 3.2 | 3.2 | 0.00 | 0.00 | 0.00 | 20 | 1012.4 |
| 20260507175532 | 27 | 170 | 1.6 | 1.6 | 0.00 | 0.00 | 0.00 | 20 | 1012.6 |
| 20260507175031 | 26 | 154 | 1.6 | 1.6 | 0.00 | 0.00 | 0.00 | 20 | 1012.7 |
| 20260507174527 | 26 | 149 | 4.8 | 4.8 | 0.00 | 0.00 | 0.00 | 20 | 1012.8 |
| 20260507174025 | 27 | 132 | 1.6 | 1.6 | 0.00 | 0.00 | 0.00 | 20 | 1012.9 |
| 20260507173521 | 26 | 168 | 0.0 | 1.6 | 0.00 | 0.00 | 0.00 | 20 | 1013.0 |
| 20260507173019 | 26 | 174 | 1.6 | 3.2 | 0.00 | 0.00 | 0.00 | 20 | 1012.9 |
| 20260507172515 | 26 | 151 | 1.6 | 1.6 | 0.00 | 0.00 | 0.00 | 20 | 1013.0 |
| 20260507172012 | 26 | 165 | 0.0 | 0.0 | 0.00 | 0.00 | 0.00 | 20 | 1013.0 |
| 20260507171507 | 25 | 156 | 0.0 | 0.0 | 0.00 | 0.00 | 0.00 | 22 | 1013.1 |
| 20260507171005 | 25 | 195 | 1.6 | 1.6 | 0.00 | 0.00 | 0.00 | 23 | 1013.4 |
| 20260507170501 | 25 | 165 | 1.6 | 3.2 | 0.00 | 0.00 | 0.00 | 22 | 1013.1 |
| 20260507165958 | 25 | 167 | 1.6 | 3.2 | 0.00 | 0.00 | 0.00 | 23 | 1013.2 |
| 20260507165454 | 24 | 236 | 3.2 | 3.2 | 0.00 | 0.00 | 0.00 | 23 | 1013.1 |
| 20260507164950 | 25 | 291 | 4.8 | 4.8 | 0.00 | 0.00 | 0.00 | 23 | 1013.3 |
| 20260507164447 | 25 | 200 | 0.0 | 0.0 | 0.00 | 0.00 | 0.00 | 23 | 1013.2 |
| 20260507163943 | 25 | 138 | 1.6 | 1.6 | 0.00 | 0.00 | 0.00 | 23 | 1013.7 |
| 20260507163441 | 24 | 174 | 1.6 | 3.2 | 0.00 | 0.00 | 0.00 | 24 | 1013.3 |
| 20260507162938 | 25 | 225 | 3.2 | 4.8 | 0.00 | 0.00 | 0.00 | 24 | 1013.3 |
| 20260507162433 | 23 | 189 | 0.0 | 0.0 | 0.00 | 0.00 | 0.00 | 25 | 1013.4 |
| 20260507161931 | 23 | 121 | 1.6 | 1.6 | 0.00 | 0.00 | 0.00 | 25 | 1013.4 |
| 20260507161427 | 23 | 154 | 0.0 | 1.6 | 0.00 | 0.00 | 0.00 | 26 | 1013.8 |
| 20260507160924 | 22 | 154 | 3.2 | 3.2 | 0.00 | 0.00 | 0.00 | 26 | 1013.6 |
| 20260507160420 | 22 | 37 | 3.2 | 3.2 | 0.00 | 0.00 | 0.00 | 26 | 1013.7 |
| 20260507155916 | 22 | 152 | 1.6 | 1.6 | 0.00 | 0.00 | 0.00 | 26 | 1013.7 |
| 20260507155412 | 22 | 114 | 1.6 | 1.6 | 0.00 | 0.00 | 0.00 | 27 | 1013.8 |
| 20260507154909 | 22 | 171 | 1.6 | 1.6 | 0.00 | 0.00 | 0.00 | 27 | 1014.0 |
| 20260507154406 | 21 | 227 | 1.6 | 3.2 | 0.00 | 0.00 | 0.00 | 27 | 1013.7 |
| 20260507153903 | 21 | 188 | 1.6 | 1.6 | 0.00 | 0.00 | 0.00 | 28 | 1013.8 |
| 20260507153359 | 21 | 339 | 1.6 | 3.2 | 0.00 | 0.00 | 0.00 | 29 | 1013.7 |
| 20260507152856 | 21 | 224 | 1.6 | 1.6 | 0.00 | 0.00 | 0.00 | 28 | 1013.9 |
| 20260507152352 | 21 | 55 | 1.6 | 1.6 | 0.00 | 0.00 | 0.00 | 28 | 1014.0 |
| 20260507151848 | 20 | 183 | 0.0 | 0.0 | 0.00 | 0.00 | 0.00 | 28 | 1013.9 |
| 20260507151344 | 20 | 126 | 3.2 | 3.2 | 0.00 | 0.00 | 0.00 | 29 | 1014.0 |
| 20260507150842 | 20 | 154 | 3.2 | 3.2 | 0.00 | 0.00 | 0.00 | 29 | 1014.0 |
| 20260507150338 | 20 | 66 | 0.0 | 0.0 | 0.00 | 0.00 | 0.00 | 30 | 1014.1 |
| 20260507145834 | 20 | 107 | 3.2 | 3.2 | 0.00 | 0.00 | 0.00 | 30 | 1014.3 |
| 20260507145331 | 20 | 101 | 1.6 | 3.2 | 0.00 | 0.00 | 0.00 | 31 | 1014.2 |
| 20260507144828 | 19 | 172 | 1.6 | 1.6 | 0.00 | 0.00 | 0.00 | 32 | 1014.2 |
| 20260507144326 | 18 | 165 | 1.6 | 1.6 | 0.00 | 0.00 | 0.00 | 33 | 1014.3 |
| 20260507143822 | 18 | 130 | 4.8 | 4.8 | 0.00 | 0.00 | 0.00 | 32 | 1014.2 |
| 20260507143319 | 18 | 135 | 3.2 | 3.2 | 0.00 | 0.00 | 0.00 | 34 | 1014.3 |
| 20260507142815 | 18 | 105 | 4.8 | 4.8 | 0.00 | 0.00 | 0.00 | 34 | 1014.4 |
| 20260507142312 | 17 | 151 | 1.6 | 1.6 | 0.00 | 0.00 | 0.00 | 36 | 1014.2 |
| 20260507141809 | 17 | 150 | 4.8 | 4.8 | 0.00 | 0.00 | 0.00 | 35 | 1014.4 |
| 20260507141305 | 17 | 115 | 3.2 | 3.2 | 0.00 | 0.00 | 0.00 | 35 | 1014.1 |
| 20260507140801 | 16 | 128 | 4.8 | 4.8 | 0.00 | 0.00 | 0.00 | 36 | 1014.2 |
| 20260507140259 | 17 | 147 | 4.8 | 4.8 | 0.00 | 0.00 | 0.00 | 35 | 1014.3 |
| 20260507135756 | 16 | 122 | 4.8 | 4.8 | 0.00 | 0.00 | 0.00 | 36 | 1014.3 |
| 20260507135253 | 16 | 124 | 6.4 | 8.0 | 0.00 | 0.00 | 0.00 | 36 | 1014.3 |
| 20260507134750 | 16 | 115 | 3.2 | 3.2 | 0.00 | 0.00 | 0.00 | 38 | 1014.2 |
| 20260507134246 | 16 | 105 | 3.2 | 3.2 | 0.00 | 0.00 | 0.00 | 37 | 1014.2 |
| 20260507133742 | 15 | 159 | 1.6 | 1.6 | 0.00 | 0.00 | 0.00 | 38 | 1014.2 |
| 20260507133239 | 15 | 150 | 1.6 | 1.6 | 0.00 | 0.00 | 0.00 | 39 | 1014.1 |
| 20260507132736 | 15 | 146 | 1.6 | 1.6 | 0.00 | 0.00 | 0.00 | 39 | 1014.2 |
| 20260507132233 | 15 | 140 | 1.6 | 3.2 | 0.00 | 0.00 | 0.00 | 41 | 1014.1 |
| 20260507131730 | 14 | 176 | 1.6 | 3.2 | 0.00 | 0.00 | 0.00 | 43 | 1013.9 |
| 20260507131227 | 14 | 117 | 1.6 | 1.6 | 0.00 | 0.00 | 0.00 | 44 | 1014.1 |
| 20260507130724 | 13 | 145 | 3.2 | 3.2 | 0.00 | 0.00 | 0.00 | 44 | 1013.9 |
| 20260507130221 | 13 | 161 | 0.0 | 0.0 | 0.00 | 0.00 | 0.00 | 46 | 1013.8 |
| 20260507125720 | 12 | 166 | 0.0 | 0.0 | 0.00 | 0.00 | 0.00 | 47 | 1013.8 |
| 20260507125217 | 12 | 161 | 1.6 | 1.6 | 0.00 | 0.00 | 0.00 | 49 | 1013.9 |
| 20260507124714 | 12 | 164 | 1.6 | 1.6 | 0.00 | 0.00 | 0.00 | 49 | 1013.6 |
| 20260507124211 | 12 | 138 | 3.2 | 3.2 | 0.00 | 0.00 | 0.00 | 50 | 1013.7 |
| 20260507123709 | 12 | 167 | 1.6 | 1.6 | 0.00 | 0.00 | 0.00 | 51 | 1013.8 |
| 20260507123206 | 12 | 164 | 0.0 | 0.0 | 0.00 | 0.00 | 0.00 | 52 | 1013.7 |
| 20260507122701 | 12 | 151 | 1.6 | 1.6 | 0.00 | 0.00 | 0.00 | 51 | 1013.8 |
| 20260507122157 | 12 | 163 | 0.0 | 0.0 | 0.00 | 0.00 | 0.00 | 51 | 1013.6 |
| 20260507121653 | 12 | 180 | 0.0 | 0.0 | 0.00 | 0.00 | 0.00 | 52 | 1014.0 |
| 20260507121149 | 12 | 159 | 0.0 | 0.0 | 0.00 | 0.00 | 0.00 | 52 | 1013.8 |
| 20260507120645 | 12 | 161 | 0.0 | 0.0 | 0.00 | 0.00 | 0.00 | 52 | 1013.8 |
| 20260507120142 | 12 | 150 | 1.6 | 1.6 | 0.00 | 0.00 | 0.00 | 50 | 1013.7 |
| 20260507115639 | 12 | 160 | 1.6 | 1.6 | 0.00 | 0.00 | 0.00 | 51 | 1013.8 |
| 20260507115134 | 12 | 151 | 0.0 | 1.6 | 0.00 | 0.00 | 0.00 | 53 | 1013.8 |
| 20260507114630 | 12 | 156 | 0.0 | 0.0 | 0.00 | 0.00 | 0.00 | 54 | 1013.8 |
| 20260507114128 | 12 | 156 | 0.0 | 0.0 | 0.00 | 0.00 | 0.00 | 52 | 1013.7 |
| 20260507113625 | 12 | 156 | 0.0 | 1.6 | 0.00 | 0.00 | 0.00 | 52 | 1013.7 |
| 20260507113122 | 12 | 146 | 1.6 | 1.6 | 0.00 | 0.00 | 0.00 | 51 | 1014.0 |
| 20260507112620 | 13 | 194 | 1.6 | 1.6 | 0.00 | 0.00 | 0.00 | 50 | 1013.9 |
| 20260507112116 | 13 | 138 | 1.6 | 1.6 | 0.00 | 0.00 | 0.00 | 48 | 1013.7 |
| 20260507111614 | 13 | 144 | 1.6 | 1.6 | 0.00 | 0.00 | 0.00 | 47 | 1013.8 |
| 20260507111110 | 13 | 176 | 1.6 | 1.6 | 0.00 | 0.00 | 0.00 | 50 | 1013.7 |
| 20260507110607 | 13 | 152 | 0.0 | 1.6 | 0.00 | 0.00 | 0.00 | 48 | 1013.7 |
| 20260507110103 | 13 | 169 | 0.0 | 1.6 | 0.00 | 0.00 | 0.00 | 46 | 1013.8 |
| 20260507105600 | 13 | 211 | 1.6 | 1.6 | 0.00 | 0.00 | 0.00 | 48 | 1013.6 |
| 20260507105056 | 14 | 182 | 0.0 | 0.0 | 0.00 | 0.00 | 0.00 | 46 | 1013.6 |
| 20260507104554 | 14 | 170 | 1.6 | 1.6 | 0.00 | 0.00 | 0.00 | 47 | 1013.4 |
| 20260507104050 | 14 | 189 | 1.6 | 1.6 | 0.00 | 0.00 | 0.00 | 46 | 1013.4 |
| 20260507103546 | 14 | 162 | 0.0 | 0.0 | 0.00 | 0.00 | 0.00 | 46 | 1013.7 |
| 20260507103043 | 13 | 215 | 0.0 | 0.0 | 0.00 | 0.00 | 0.00 | 46 | 1013.6 |
| 20260507102539 | 14 | 158 | 0.0 | 0.0 | 0.00 | 0.00 | 0.00 | 46 | 1013.3 |
| 20260507102036 | 14 | 150 | 3.2 | 3.2 | 0.00 | 0.00 | 0.00 | 46 | 1013.7 |
| 20260507101531 | 14 | 155 | 3.2 | 3.2 | 0.00 | 0.00 | 0.00 | 46 | 1013.7 |
| 20260507101027 | 14 | 156 | 1.6 | 1.6 | 0.00 | 0.00 | 0.00 | 47 | 1013.7 |
| 20260507100525 | 14 | 150 | 1.6 | 1.6 | 0.00 | 0.00 | 0.00 | 47 | 1013.4 |
| 20260507100023 | 14 | 159 | 0.0 | 0.0 | 0.00 | 0.00 | 0.00 | 47 | 1013.3 |
| 20260507095521 | 15 | 159 | 0.0 | 1.6 | 0.00 | 0.00 | 0.00 | 45 | 1013.6 |
| 20260507095017 | 14 | 154 | 1.6 | 1.6 | 0.00 | 0.00 | 0.00 | 45 | 1013.7 |
| 20260507094513 | 14 | 153 | 0.0 | 0.0 | 0.00 | 0.00 | 0.00 | 46 | 1013.7 |
| 20260507094010 | 15 | 152 | 0.0 | 0.0 | 0.00 | 0.00 | 0.00 | 45 | 1013.9 |
| 20260507093508 | 15 | 152 | 0.0 | 0.0 | 0.00 | 0.00 | 0.00 | 45 | 1013.6 |
| 20260507093007 | 15 | 129 | 1.6 | 1.6 | 0.00 | 0.00 | 0.00 | 44 | 1013.7 |
| 20260507092502 | 15 | 139 | 0.0 | 0.0 | 0.00 | 0.00 | 0.00 | 46 | 1013.9 |
| 20260507092000 | 15 | 90 | 1.6 | 1.6 | 0.00 | 0.00 | 0.00 | 46 | 1013.7 |
| 20260507091456 | 15 | 204 | 0.0 | 0.0 | 0.00 | 0.00 | 0.00 | 48 | 1014.0 |
| 20260507090952 | 15 | 134 | 0.0 | 0.0 | 0.00 | 0.00 | 0.00 | 47 | 1013.8 |
| 20260507090448 | 15 | 160 | 0.0 | 0.0 | 0.00 | 0.00 | 0.00 | 48 | 1013.7 |
| 20260507085944 | 15 | 165 | 0.0 | 0.0 | 0.00 | 0.00 | 0.00 | 48 | 1013.8 |
| 20260507085442 | 15 | 165 | 0.0 | 0.0 | 0.00 | 0.00 | 0.00 | 48 | 1014.1 |
| 20260507084938 | 15 | 172 | 0.0 | 0.0 | 0.00 | 0.00 | 0.00 | 46 | 1013.7 |
| 20260507084435 | 15 | 141 | 0.0 | 0.0 | 0.00 | 0.00 | 0.00 | 46 | 1013.9 |
| 20260507083932 | 15 | 156 | 0.0 | 0.0 | 0.00 | 0.00 | 0.00 | 46 | 1013.9 |
| 20260507083429 | 15 | 144 | 0.0 | 0.0 | 0.00 | 0.00 | 0.00 | 46 | 1014.1 |
| 20260507082925 | 15 | 162 | 0.0 | 0.0 | 0.00 | 0.00 | 0.00 | 46 | 1013.9 |
| 20260507082421 | 15 | 185 | 0.0 | 0.0 | 0.00 | 0.00 | 0.00 | 46 | 1013.8 |
| 20260507081918 | 15 | 209 | 0.0 | 0.0 | 0.00 | 0.00 | 0.00 | 47 | 1013.9 |
| 20260507081414 | 15 | 152 | 0.0 | 0.0 | 0.00 | 0.00 | 0.00 | 47 | 1013.9 |
| 20260507080911 | 15 | 77 | 0.0 | 0.0 | 0.00 | 0.00 | 0.00 | 47 | 1014.0 |
| 20260507080408 | 15 | 165 | 0.0 | 0.0 | 0.00 | 0.00 | 0.00 | 47 | 1013.9 |
| 20260507075903 | 15 | 159 | 0.0 | 0.0 | 0.00 | 0.00 | 0.00 | 47 | 1014.0 |
| 20260507075359 | 16 | 118 | 0.0 | 0.0 | 0.00 | 0.00 | 0.00 | 45 | 1014.0 |
| 20260507074856 | 17 | 201 | 0.0 | 0.0 | 0.00 | 0.00 | 0.00 | 40 | 1013.9 |
| 20260507074353 | 17 | 170 | 0.0 | 0.0 | 0.00 | 0.00 | 0.00 | 34 | 1013.9 |
| 20260507073850 | 17 | 192 | 0.0 | 0.0 | 0.00 | 0.00 | 0.00 | 32 | 1013.9 |
| 20260507073346 | 17 | 194 | 0.0 | 0.0 | 0.00 | 0.00 | 0.00 | 33 | 1013.6 |
| 20260507072844 | 17 | 165 | 0.0 | 0.0 | 0.00 | 0.00 | 0.00 | 32 | 1013.6 |
| 20260507072341 | 17 | 159 | 1.6 | 1.6 | 0.00 | 0.00 | 0.00 | 32 | 1013.8 |
| 20260507071839 | 18 | 175 | 0.0 | 0.0 | 0.00 | 0.00 | 0.00 | 31 | 1013.7 |
| 20260507071336 | 18 | 168 | 0.0 | 0.0 | 0.00 | 0.00 | 0.00 | 31 | 1014.0 |
| 20260507070832 | 19 | 242 | 3.2 | 3.2 | 0.00 | 0.00 | 0.00 | 29 | 1013.8 |
| 20260507070329 | 19 | 233 | 4.8 | 4.8 | 0.00 | 0.00 | 0.00 | 29 | 1013.8 |
| 20260507065826 | 19 | 218 | 3.2 | 3.2 | 0.00 | 0.00 | 0.00 | 29 | 1013.8 |
| 20260507065322 | 19 | 183 | 1.6 | 3.2 | 0.00 | 0.00 | 0.00 | 29 | 1014.1 |
| 20260507064820 | 19 | 201 | 3.2 | 3.2 | 0.00 | 0.00 | 0.00 | 29 | 1013.9 |
| 20260507064318 | 19 | 241 | 3.2 | 3.2 | 0.00 | 0.00 | 0.00 | 29 | 1013.7 |
| 20260507063816 | 19 | 235 | 4.8 | 4.8 | 0.00 | 0.00 | 0.00 | 29 | 1013.7 |
| 20260507063312 | 19 | 209 | 1.6 | 1.6 | 0.00 | 0.00 | 0.00 | 29 | 1013.7 |
| 20260507062809 | 19 | 221 | 3.2 | 4.8 | 0.00 | 0.00 | 0.00 | 28 | 1013.9 |
| 20260507062306 | 19 | 189 | 0.0 | 0.0 | 0.00 | 0.00 | 0.00 | 29 | 1013.7 |
| 20260507061804 | 20 | 210 | 0.0 | 0.0 | 0.00 | 0.00 | 0.00 | 28 | 1013.9 |
| 20260507061302 | 20 | 198 | 1.6 | 1.6 | 0.00 | 0.00 | 0.00 | 28 | 1013.6 |
| 20260507060800 | 20 | 206 | 3.2 | 3.2 | 0.00 | 0.00 | 0.00 | 27 | 1014.0 |
| 20260507060256 | 20 | 212 | 1.6 | 3.2 | 0.00 | 0.00 | 0.00 | 27 | 1013.6 |
| 20260507055753 | 20 | 265 | 1.6 | 3.2 | 0.00 | 0.00 | 0.00 | 27 | 1013.6 |
| 20260507055248 | 20 | 223 | 4.8 | 4.8 | 0.00 | 0.00 | 0.00 | 27 | 1013.4 |
| 20260507054745 | 20 | 272 | 4.8 | 4.8 | 0.00 | 0.00 | 0.00 | 27 | 1013.7 |
| 20260507054241 | 20 | 223 | 1.6 | 1.6 | 0.00 | 0.00 | 0.00 | 27 | 1013.6 |
| 20260507053739 | 20 | 212 | 1.6 | 1.6 | 0.00 | 0.00 | 0.00 | 27 | 1013.8 |
| 20260507053236 | 20 | 216 | 3.2 | 3.2 | 0.00 | 0.00 | 0.00 | 26 | 1013.6 |
| 20260507052735 | 20 | 229 | 3.2 | 3.2 | 0.00 | 0.00 | 0.00 | 26 | 1013.3 |
| 20260507052231 | 20 | 250 | 3.2 | 3.2 | 0.00 | 0.00 | 0.00 | 26 | 1013.7 |
| 20260507051729 | 20 | 203 | 1.6 | 3.2 | 0.00 | 0.00 | 0.00 | 26 | 1013.4 |
| 20260507051226 | 20 | 262 | 1.6 | 1.6 | 0.00 | 0.00 | 0.00 | 26 | 1013.6 |
| 20260507050722 | 21 | 202 | 1.6 | 3.2 | 0.00 | 0.00 | 0.00 | 25 | 1013.2 |
| 20260507050220 | 21 | 237 | 4.8 | 4.8 | 0.00 | 0.00 | 0.00 | 25 | 1013.4 |
| 20260507045716 | 21 | 266 | 4.8 | 4.8 | 0.00 | 0.00 | 0.00 | 25 | 1013.2 |
| 20260507045212 | 21 | 204 | 1.6 | 3.2 | 0.00 | 0.00 | 0.00 | 25 | 1013.4 |
| 20260507044710 | 21 | 250 | 4.8 | 4.8 | 0.00 | 0.00 | 0.00 | 24 | 1013.4 |
| 20260507044206 | 21 | 269 | 4.8 | 4.8 | 0.00 | 0.00 | 0.00 | 24 | 1013.3 |
| 20260507043702 | 21 | 274 | 3.2 | 3.2 | 0.00 | 0.00 | 0.00 | 24 | 1013.3 |
| 20260507043159 | 21 | 252 | 4.8 | 4.8 | 0.00 | 0.00 | 0.00 | 24 | 1013.4 |
| 20260507042656 | 21 | 221 | 4.8 | 4.8 | 0.00 | 0.00 | 0.00 | 24 | 1013.3 |
| 20260507042150 | 21 | 274 | 8.0 | 9.7 | 0.00 | 0.00 | 0.00 | 24 | 1013.2 |
| 20260507041648 | 21 | 238 | 8.0 | 9.7 | 0.00 | 0.00 | 0.00 | 24 | 1013.1 |
| 20260507041144 | 21 | 226 | 8.0 | 11.3 | 0.00 | 0.00 | 0.00 | 24 | 1013.0 |
| 20260507040642 | 22 | 271 | 9.7 | 11.3 | 0.00 | 0.00 | 0.00 | 24 | 1013.1 |
| 20260507040138 | 22 | 264 | 8.0 | 9.7 | 0.00 | 0.00 | 0.00 | 23 | 1013.0 |
| 20260507035634 | 22 | 252 | 11.3 | 12.9 | 0.00 | 0.00 | 0.00 | 23 | 1013.1 |
| 20260507035130 | 22 | 262 | 11.3 | 12.9 | 0.00 | 0.00 | 0.00 | 23 | 1012.9 |
| 20260507034627 | 22 | 276 | 8.0 | 11.3 | 0.00 | 0.00 | 0.00 | 23 | 1012.9 |
| 20260507034125 | 22 | 249 | 9.7 | 12.9 | 0.00 | 0.00 | 0.00 | 23 | 1012.8 |
| 20260507033623 | 22 | 274 | 9.7 | 11.3 | 0.00 | 0.00 | 0.00 | 23 | 1012.8 |
| 20260507033120 | 22 | 264 | 9.7 | 12.9 | 0.00 | 0.00 | 0.00 | 23 | 1012.9 |
| 20260507032617 | 22 | 283 | 8.0 | 9.7 | 0.00 | 0.00 | 0.00 | 23 | 1012.8 |
| 20260507032113 | 22 | 255 | 6.4 | 9.7 | 0.00 | 0.00 | 0.00 | 23 | 1012.7 |
| 20260507031610 | 22 | 266 | 6.4 | 8.0 | 0.00 | 0.00 | 0.00 | 22 | 1012.6 |
| 20260507031106 | 22 | 265 | 8.0 | 11.3 | 0.00 | 0.00 | 0.00 | 22 | 1012.6 |
| 20260507030603 | 23 | 247 | 8.0 | 8.0 | 0.00 | 0.00 | 0.00 | 22 | 1012.6 |
| 20260507030101 | 23 | 255 | 4.8 | 4.8 | 0.00 | 0.00 | 0.00 | 21 | 1012.4 |
| 20260507025558 | 23 | 283 | 4.8 | 8.0 | 0.00 | 0.00 | 0.00 | 21 | 1012.3 |
| 20260507025055 | 23 | 258 | 8.0 | 9.7 | 0.00 | 0.00 | 0.00 | 21 | 1012.3 |
| 20260507024553 | 23 | 268 | 8.0 | 9.7 | 0.00 | 0.00 | 0.00 | 21 | 1012.2 |
| 20260507024050 | 23 | 260 | 11.3 | 14.5 | 0.00 | 0.00 | 0.00 | 20 | 1012.3 |
| 20260507023545 | 23 | 263 | 6.4 | 9.7 | 0.00 | 0.00 | 0.00 | 21 | 1012.2 |
| 20260507023043 | 23 | 285 | 6.4 | 8.0 | 0.00 | 0.00 | 0.00 | 21 | 1012.2 |
| 20260507022539 | 23 | 259 | 6.4 | 9.7 | 0.00 | 0.00 | 0.00 | 20 | 1012.2 |
| 20260507022035 | 23 | 227 | 4.8 | 4.8 | 0.00 | 0.00 | 0.00 | 21 | 1012.2 |
| 20260507021531 | 23 | 286 | 9.7 | 12.9 | 0.00 | 0.00 | 0.00 | 21 | 1012.2 |
| 20260507021028 | 23 | 291 | 4.8 | 4.8 | 0.00 | 0.00 | 0.00 | 21 | 1012.0 |
| 20260507020525 | 23 | 271 | 9.7 | 11.3 | 0.00 | 0.00 | 0.00 | 21 | 1012.2 |
| 20260507020022 | 24 | 263 | 4.8 | 4.8 | 0.00 | 0.00 | 0.00 | 21 | 1012.2 |
| 20260507015520 | 24 | 270 | 9.7 | 12.9 | 0.00 | 0.00 | 0.00 | 20 | 1011.9 |
| 20260507015017 | 24 | 334 | 12.9 | 16.1 | 0.00 | 0.00 | 0.00 | 20 | 1012.2 |
| 20260507014514 | 25 | 257 | 11.3 | 12.9 | 0.00 | 0.00 | 0.00 | 21 | 1012.0 |
| 20260507014010 | 25 | 287 | 4.8 | 8.0 | 0.00 | 0.00 | 0.00 | 21 | 1012.3 |
| 20260507013506 | 25 | 264 | 4.8 | 9.7 | 0.00 | 0.00 | 0.00 | 21 | 1012.0 |
| 20260507013004 | 25 | 298 | 9.7 | 12.9 | 0.00 | 0.00 | 0.00 | 21 | 1012.3 |
| 20260507012501 | 25 | 252 | 11.3 | 12.9 | 0.00 | 0.00 | 0.00 | 21 | 1011.8 |
| 20260507011957 | 25 | 238 | 8.0 | 9.7 | 0.00 | 0.00 | 0.00 | 21 | 1011.9 |
| 20260507011454 | 25 | 187 | 8.0 | 9.7 | 0.00 | 0.00 | 0.00 | 21 | 1012.2 |
| 20260507010950 | 25 | 253 | 9.7 | 11.3 | 0.00 | 0.00 | 0.00 | 21 | 1011.9 |
| 20260507010444 | 25 | 195 | 4.8 | 8.0 | 0.00 | 0.00 | 0.00 | 21 | 1011.9 |
| 20260507005942 | 25 | 281 | 4.8 | 9.7 | 0.00 | 0.00 | 0.00 | 21 | 1012.3 |
| 20260507005439 | 25 | 273 | 8.0 | 9.7 | 0.00 | 0.00 | 0.00 | 21 | 1012.2 |
| 20260507004935 | 25 | 271 | 11.3 | 14.5 | 0.00 | 0.00 | 0.00 | 21 | 1012.2 |
| 20260507004432 | 25 | 273 | 11.3 | 11.3 | 0.00 | 0.00 | 0.00 | 21 | 1011.9 |
| 20260507003930 | 25 | 245 | 8.0 | 11.3 | 0.00 | 0.00 | 0.00 | 21 | 1012.0 |
| 20260507003424 | 25 | 37 | 9.7 | 14.5 | 0.00 | 0.00 | 0.00 | 21 | 1012.0 |
| 20260507002920 | 25 | 271 | 11.3 | 12.9 | 0.00 | 0.00 | 0.00 | 21 | 1011.9 |
| 20260507002416 | 26 | 297 | 14.5 | 17.7 | 0.00 | 0.00 | 0.00 | 20 | 1011.8 |
| 20260507001914 | 26 | 319 | 14.5 | 16.1 | 0.00 | 0.00 | 0.00 | 21 | 1012.2 |
| 20260507001410 | 25 | 228 | 6.4 | 9.7 | 0.00 | 0.00 | 0.00 | 21 | 1011.8 |
| 20260507000908 | 26 | 351 | 11.3 | 14.5 | 0.00 | 0.00 | 0.00 | 21 | 1011.8 |
| 20260507000405 | 26 | 203 | 4.8 | 4.8 | 0.00 | 0.00 | 0.00 | 21 | 1011.8 |
| 20260506235859 | 25 | 22 | 4.8 | 4.8 | 0.00 | 0.00 | 0.00 | 21 | 1011.9 |
| 20260506235356 | 25 | 188 | 4.8 | 8.0 | 0.00 | 0.00 | 0.00 | 20 | 1012.0 |
| 20260506234852 | 26 | 237 | 1.6 | 1.6 | 0.00 | 0.00 | 0.00 | 21 | 1011.7 |
| 20260506234350 | 25 | 25 | 4.8 | 4.8 | 0.00 | 0.00 | 0.00 | 21 | 1011.8 |
| 20260506233847 | 25 | 106 | 4.8 | 8.0 | 0.00 | 0.00 | 0.00 | 20 | 1011.9 |
| 20260506233343 | 25 | 200 | 4.8 | 4.8 | 0.00 | 0.00 | 0.00 | 20 | 1012.0 |
| 20260506232840 | 26 | 191 | 3.2 | 3.2 | 0.00 | 0.00 | 0.00 | 21 | 1011.9 |
| 20260506232336 | 26 | 292 | 8.0 | 11.3 | 0.00 | 0.00 | 0.00 | 20 | 1011.9 |
| 20260506231833 | 26 | 258 | 12.9 | 14.5 | 0.00 | 0.00 | 0.00 | 21 | 1012.2 |
| 20260506231331 | 26 | 236 | 4.8 | 4.8 | 0.00 | 0.00 | 0.00 | 20 | 1012.3 |
| 20260506230828 | 25 | 289 | 8.0 | 11.3 | 0.00 | 0.00 | 0.00 | 21 | 1012.3 |
| 20260506230324 | 26 | 283 | 3.2 | 4.8 | 0.00 | 0.00 | 0.00 | 21 | 1012.2 |
| 20260506225820 | 25 | 17 | 6.4 | 11.3 | 0.00 | 0.00 | 0.00 | 21 | 1012.3 |
| 20260506225318 | 26 | 262 | 12.9 | 12.9 | 0.00 | 0.00 | 0.00 | 21 | 1012.3 |
| 20260506224815 | 25 | 305 | 12.9 | 14.5 | 0.00 | 0.00 | 0.00 | 21 | 1012.2 |
| 20260506224312 | 25 | 256 | 9.7 | 11.3 | 0.00 | 0.00 | 0.00 | 22 | 1012.4 |
| 20260506223808 | 25 | 187 | 0.0 | 0.0 | 0.00 | 0.00 | 0.00 | 21 | 1012.2 |
| 20260506223303 | 26 | 301 | 6.4 | 8.0 | 0.00 | 0.00 | 0.00 | 21 | 1012.4 |
| 20260506222801 | 25 | 268 | 8.0 | 9.7 | 0.00 | 0.00 | 0.00 | 21 | 1012.6 |
| 20260506222256 | 26 | 270 | 12.9 | 16.1 | 0.00 | 0.00 | 0.00 | 22 | 1012.5 |
| 20260506221754 | 25 | 227 | 3.2 | 3.2 | 0.00 | 0.00 | 0.00 | 23 | 1012.4 |
| 20260506221252 | 25 | 260 | 8.0 | 9.7 | 0.00 | 0.00 | 0.00 | 22 | 1012.5 |
| 20260506220749 | 25 | 250 | 12.9 | 16.1 | 0.00 | 0.00 | 0.00 | 23 | 1012.4 |
| 20260506220244 | 25 | 243 | 6.4 | 8.0 | 0.00 | 0.00 | 0.00 | 23 | 1012.5 |
| 20260506215741 | 25 | 269 | 6.4 | 9.7 | 0.00 | 0.00 | 0.00 | 23 | 1012.8 |
| 20260506215237 | 25 | 249 | 3.2 | 3.2 | 0.00 | 0.00 | 0.00 | 24 | 1012.8 |
| 20260506214733 | 25 | 68 | 8.0 | 11.3 | 0.00 | 0.00 | 0.00 | 24 | 1012.9 |
| 20260506214230 | 25 | 294 | 11.3 | 12.9 | 0.00 | 0.00 | 0.00 | 24 | 1012.8 |
| 20260506213728 | 25 | 230 | 8.0 | 9.7 | 0.00 | 0.00 | 0.00 | 24 | 1013.0 |
| 20260506213225 | 25 | 306 | 4.8 | 4.8 | 0.00 | 0.00 | 0.00 | 24 | 1012.8 |
| 20260506212717 | 25 | 352 | 3.2 | 3.2 | 0.00 | 0.00 | 0.00 | 25 | 1012.9 |
| 20260506212212 | 25 | 191 | 4.8 | 8.0 | 0.00 | 0.00 | 0.00 | 24 | 1013.0 |
| 20260506211708 | 25 | 170 | 3.2 | 4.8 | 0.00 | 0.00 | 0.00 | 24 | 1013.1 |
| 20260506211204 | 23 | 268 | 9.7 | 11.3 | 0.00 | 0.00 | 0.00 | 25 | 1013.3 |
| 20260506210701 | 25 | 284 | 6.4 | 8.0 | 0.00 | 0.00 | 0.00 | 26 | 1013.2 |
| 20260506210158 | 24 | 141 | 1.6 | 3.2 | 0.00 | 0.00 | 0.00 | 26 | 1013.2 |
| 20260506205655 | 23 | 186 | 4.8 | 4.8 | 0.00 | 0.00 | 0.00 | 27 | 1013.2 |
| 20260506205150 | 24 | 283 | 14.5 | 14.5 | 0.00 | 0.00 | 0.00 | 26 | 1013.7 |
| 20260506204648 | 23 | 221 | 1.6 | 3.2 | 0.00 | 0.00 | 0.00 | 27 | 1013.4 |
| 20260506204144 | 24 | 295 | 3.2 | 3.2 | 0.00 | 0.00 | 0.00 | 27 | 1013.6 |
| 20260506203643 | 23 | 157 | 1.6 | 3.2 | 0.00 | 0.00 | 0.00 | 28 | 1013.9 |
| 20260506203139 | 23 | 256 | 6.4 | 9.7 | 0.00 | 0.00 | 0.00 | 28 | 1013.8 |
| 20260506202638 | 23 | 245 | 9.7 | 11.3 | 0.00 | 0.00 | 0.00 | 29 | 1013.8 |
| 20260506202133 | 23 | 227 | 4.8 | 4.8 | 0.00 | 0.00 | 0.00 | 28 | 1013.8 |
| 20260506201630 | 23 | 233 | 1.6 | 3.2 | 0.00 | 0.00 | 0.00 | 28 | 1013.9 |
| 20260506201127 | 24 | 203 | 4.8 | 4.8 | 0.00 | 0.00 | 0.00 | 28 | 1014.0 |